sensor_id;sensor_type;location;lat;lon;timestamp;P1;durP1;ratioP1;P2;durP2;ratioP2
19998;SDS011;10160;50.926;4.374;2023-05-07T00:02:24;12.30;;;4.65;;
19998;SDS011;10160;50.926;4.374;2023-05-07T00:04:50;9.52;;;4.25;;
19998;SDS011;10160;50.926;4.374;2023-05-07T00:07:17;13.27;;;4.50;;
19998;SDS011;10160;50.926;4.374;2023-05-07T00:09:43;13.80;;;4.53;;
19998;SDS011;10160;50.926;4.374;2023-05-07T00:12:08;12.68;;;4.53;;
19998;SDS011;10160;50.926;4.374;2023-05-07T00:14:34;13.45;;;4.85;;
19998;SDS011;10160;50.926;4.374;2023-05-07T00:17:00;17.90;;;4.97;;
19998;SDS011;10160;50.926;4.374;2023-05-07T00:19:26;14.20;;;4.53;;
19998;SDS011;10160;50.926;4.374;2023-05-07T00:21:51;14.73;;;4.80;;
19998;SDS011;10160;50.926;4.374;2023-05-07T00:24:19;12.60;;;4.55;;
19998;SDS011;10160;50.926;4.374;2023-05-07T00:26:44;8.85;;;4.40;;
19998;SDS011;10160;50.926;4.374;2023-05-07T00:29:10;11.13;;;4.35;;
19998;SDS011;10160;50.926;4.374;2023-05-07T00:31:36;13.93;;;4.85;;
19998;SDS011;10160;50.926;4.374;2023-05-07T00:34:02;10.05;;;5.13;;
19998;SDS011;10160;50.926;4.374;2023-05-07T00:36:27;13.38;;;5.05;;
19998;SDS011;10160;50.926;4.374;2023-05-07T00:38:54;15.05;;;5.78;;
19998;SDS011;10160;50.926;4.374;2023-05-07T00:41:21;14.02;;;5.75;;
19998;SDS011;10160;50.926;4.374;2023-05-07T00:43:47;11.20;;;5.65;;
19998;SDS011;10160;50.926;4.374;2023-05-07T00:46:13;14.98;;;6.35;;
19998;SDS011;10160;50.926;4.374;2023-05-07T00:48:40;12.18;;;5.68;;
19998;SDS011;10160;50.926;4.374;2023-05-07T00:51:06;13.75;;;5.57;;
19998;SDS011;10160;50.926;4.374;2023-05-07T00:53:32;11.88;;;6.03;;
19998;SDS011;10160;50.926;4.374;2023-05-07T00:55:57;15.30;;;5.88;;
19998;SDS011;10160;50.926;4.374;2023-05-07T00:58:23;14.43;;;5.85;;
19998;SDS011;10160;50.926;4.374;2023-05-07T01:00:49;11.07;;;5.75;;
19998;SDS011;10160;50.926;4.374;2023-05-07T01:03:15;17.50;;;5.60;;
19998;SDS011;10160;50.926;4.374;2023-05-07T01:05:41;17.02;;;5.82;;
19998;SDS011;10160;50.926;4.374;2023-05-07T01:08:09;11.60;;;5.40;;
19998;SDS011;10160;50.926;4.374;2023-05-07T01:10:35;14.95;;;5.93;;
19998;SDS011;10160;50.926;4.374;2023-05-07T01:13:01;12.18;;;5.53;;
19998;SDS011;10160;50.926;4.374;2023-05-07T01:15:27;9.93;;;5.25;;
19998;SDS011;10160;50.926;4.374;2023-05-07T01:17:53;14.05;;;5.55;;
19998;SDS011;10160;50.926;4.374;2023-05-07T01:20:20;12.18;;;5.00;;
19998;SDS011;10160;50.926;4.374;2023-05-07T01:22:47;11.60;;;5.95;;
19998;SDS011;10160;50.926;4.374;2023-05-07T01:25:15;12.45;;;5.60;;
19998;SDS011;10160;50.926;4.374;2023-05-07T01:27:41;14.48;;;5.95;;
19998;SDS011;10160;50.926;4.374;2023-05-07T01:30:07;17.20;;;5.93;;
19998;SDS011;10160;50.926;4.374;2023-05-07T01:32:38;13.43;;;5.57;;
19998;SDS011;10160;50.926;4.374;2023-05-07T01:35:20;14.70;;;6.30;;
19998;SDS011;10160;50.926;4.374;2023-05-07T01:37:49;17.48;;;5.25;;
19998;SDS011;10160;50.926;4.374;2023-05-07T01:40:16;14.38;;;5.18;;
19998;SDS011;10160;50.926;4.374;2023-05-07T01:42:42;11.70;;;4.88;;
19998;SDS011;10160;50.926;4.374;2023-05-07T01:45:09;14.70;;;5.57;;
19998;SDS011;10160;50.926;4.374;2023-05-07T01:47:35;16.10;;;5.28;;
19998;SDS011;10160;50.926;4.374;2023-05-07T01:50:02;11.68;;;5.25;;
19998;SDS011;10160;50.926;4.374;2023-05-07T01:52:30;13.13;;;5.50;;
19998;SDS011;10160;50.926;4.374;2023-05-07T01:54:56;11.60;;;5.40;;
19998;SDS011;10160;50.926;4.374;2023-05-07T01:57:22;15.25;;;6.03;;
19998;SDS011;10160;50.926;4.374;2023-05-07T01:59:48;10.95;;;5.82;;
19998;SDS011;10160;50.926;4.374;2023-05-07T02:02:13;12.85;;;5.65;;
19998;SDS011;10160;50.926;4.374;2023-05-07T02:04:39;17.27;;;5.70;;
19998;SDS011;10160;50.926;4.374;2023-05-07T02:07:05;13.98;;;6.10;;
19998;SDS011;10160;50.926;4.374;2023-05-07T02:09:30;11.05;;;5.72;;
19998;SDS011;10160;50.926;4.374;2023-05-07T02:11:56;11.13;;;5.55;;
19998;SDS011;10160;50.926;4.374;2023-05-07T02:14:22;13.57;;;5.20;;
19998;SDS011;10160;50.926;4.374;2023-05-07T02:16:47;13.43;;;5.40;;
19998;SDS011;10160;50.926;4.374;2023-05-07T02:19:13;13.65;;;5.55;;
19998;SDS011;10160;50.926;4.374;2023-05-07T02:21:39;14.75;;;6.03;;
19998;SDS011;10160;50.926;4.374;2023-05-07T02:24:04;11.27;;;5.72;;
19998;SDS011;10160;50.926;4.374;2023-05-07T02:26:30;16.10;;;5.43;;
19998;SDS011;10160;50.926;4.374;2023-05-07T02:28:56;18.75;;;5.60;;
19998;SDS011;10160;50.926;4.374;2023-05-07T02:31:21;12.50;;;5.60;;
19998;SDS011;10160;50.926;4.374;2023-05-07T02:33:47;11.77;;;5.05;;
19998;SDS011;10160;50.926;4.374;2023-05-07T02:36:13;11.50;;;5.47;;
19998;SDS011;10160;50.926;4.374;2023-05-07T02:38:38;12.77;;;6.03;;
19998;SDS011;10160;50.926;4.374;2023-05-07T02:41:04;13.30;;;6.53;;
19998;SDS011;10160;50.926;4.374;2023-05-07T02:43:30;11.63;;;5.72;;
19998;SDS011;10160;50.926;4.374;2023-05-07T02:46:03;12.63;;;6.22;;
19998;SDS011;10160;50.926;4.374;2023-05-07T02:48:29;16.55;;;5.85;;
19998;SDS011;10160;50.926;4.374;2023-05-07T02:50:55;15.95;;;6.00;;
19998;SDS011;10160;50.926;4.374;2023-05-07T02:53:21;11.35;;;5.22;;
19998;SDS011;10160;50.926;4.374;2023-05-07T02:55:46;10.75;;;5.28;;
19998;SDS011;10160;50.926;4.374;2023-05-07T02:58:12;14.07;;;6.20;;
19998;SDS011;10160;50.926;4.374;2023-05-07T03:00:38;14.70;;;6.00;;
19998;SDS011;10160;50.926;4.374;2023-05-07T03:03:03;14.07;;;5.88;;
19998;SDS011;10160;50.926;4.374;2023-05-07T03:05:29;13.05;;;6.28;;
19998;SDS011;10160;50.926;4.374;2023-05-07T03:07:55;11.98;;;5.90;;
19998;SDS011;10160;50.926;4.374;2023-05-07T03:10:20;11.50;;;4.93;;
19998;SDS011;10160;50.926;4.374;2023-05-07T03:12:46;11.20;;;5.72;;
19998;SDS011;10160;50.926;4.374;2023-05-07T03:15:12;9.88;;;4.90;;
19998;SDS011;10160;50.926;4.374;2023-05-07T03:17:37;12.82;;;5.68;;
19998;SDS011;10160;50.926;4.374;2023-05-07T03:20:04;10.82;;;5.65;;
19998;SDS011;10160;50.926;4.374;2023-05-07T03:22:30;11.48;;;5.30;;
19998;SDS011;10160;50.926;4.374;2023-05-07T03:24:55;11.52;;;5.82;;
19998;SDS011;10160;50.926;4.374;2023-05-07T03:27:21;17.70;;;6.22;;
19998;SDS011;10160;50.926;4.374;2023-05-07T03:29:47;14.80;;;5.90;;
19998;SDS011;10160;50.926;4.374;2023-05-07T03:32:13;14.23;;;6.43;;
19998;SDS011;10160;50.926;4.374;2023-05-07T03:34:39;14.90;;;6.95;;
19998;SDS011;10160;50.926;4.374;2023-05-07T03:37:05;18.65;;;6.45;;
19998;SDS011;10160;50.926;4.374;2023-05-07T03:39:30;14.32;;;6.65;;
19998;SDS011;10160;50.926;4.374;2023-05-07T03:41:57;12.85;;;5.85;;
19998;SDS011;10160;50.926;4.374;2023-05-07T03:44:23;11.27;;;6.72;;
19998;SDS011;10160;50.926;4.374;2023-05-07T03:46:49;19.10;;;6.75;;
19998;SDS011;10160;50.926;4.374;2023-05-07T03:49:15;13.73;;;6.95;;
19998;SDS011;10160;50.926;4.374;2023-05-07T03:51:40;12.55;;;6.97;;
19998;SDS011;10160;50.926;4.374;2023-05-07T03:54:06;16.25;;;6.80;;
19998;SDS011;10160;50.926;4.374;2023-05-07T03:56:32;16.10;;;7.10;;
19998;SDS011;10160;50.926;4.374;2023-05-07T03:58:58;18.92;;;7.05;;
19998;SDS011;10160;50.926;4.374;2023-05-07T04:01:23;17.90;;;7.35;;
19998;SDS011;10160;50.926;4.374;2023-05-07T04:03:49;18.88;;;7.03;;
19998;SDS011;10160;50.926;4.374;2023-05-07T04:06:15;16.02;;;7.72;;
19998;SDS011;10160;50.926;4.374;2023-05-07T04:08:42;15.60;;;7.60;;
19998;SDS011;10160;50.926;4.374;2023-05-07T04:11:08;16.73;;;7.60;;
19998;SDS011;10160;50.926;4.374;2023-05-07T04:13:33;15.60;;;8.60;;
19998;SDS011;10160;50.926;4.374;2023-05-07T04:16:00;17.85;;;8.88;;
19998;SDS011;10160;50.926;4.374;2023-05-07T04:18:27;11.27;;;6.75;;
19998;SDS011;10160;50.926;4.374;2023-05-07T04:20:53;15.13;;;7.05;;
19998;SDS011;10160;50.926;4.374;2023-05-07T04:23:19;15.68;;;7.35;;
19998;SDS011;10160;50.926;4.374;2023-05-07T04:25:45;16.08;;;7.32;;
19998;SDS011;10160;50.926;4.374;2023-05-07T04:28:11;17.50;;;7.28;;
19998;SDS011;10160;50.926;4.374;2023-05-07T04:30:37;17.25;;;7.95;;
19998;SDS011;10160;50.926;4.374;2023-05-07T04:33:03;16.38;;;8.20;;
19998;SDS011;10160;50.926;4.374;2023-05-07T04:35:29;17.17;;;8.05;;
19998;SDS011;10160;50.926;4.374;2023-05-07T04:37:55;15.63;;;8.00;;
19998;SDS011;10160;50.926;4.374;2023-05-07T04:40:20;15.55;;;8.30;;
19998;SDS011;10160;50.926;4.374;2023-05-07T04:42:46;12.63;;;7.43;;
19998;SDS011;10160;50.926;4.374;2023-05-07T04:45:11;16.40;;;7.72;;
19998;SDS011;10160;50.926;4.374;2023-05-07T04:47:37;19.70;;;8.20;;
19998;SDS011;10160;50.926;4.374;2023-05-07T04:50:04;14.38;;;7.45;;
19998;SDS011;10160;50.926;4.374;2023-05-07T04:52:31;11.70;;;7.05;;
19998;SDS011;10160;50.926;4.374;2023-05-07T04:54:58;16.70;;;7.93;;
19998;SDS011;10160;50.926;4.374;2023-05-07T04:57:25;13.88;;;6.80;;
19998;SDS011;10160;50.926;4.374;2023-05-07T04:59:51;12.02;;;7.55;;
19998;SDS011;10160;50.926;4.374;2023-05-07T05:02:17;21.90;;;7.80;;
19998;SDS011;10160;50.926;4.374;2023-05-07T05:04:42;12.93;;;7.03;;
19998;SDS011;10160;50.926;4.374;2023-05-07T05:07:08;15.32;;;7.07;;
19998;SDS011;10160;50.926;4.374;2023-05-07T05:09:34;12.52;;;6.90;;
19998;SDS011;10160;50.926;4.374;2023-05-07T05:12:00;13.85;;;6.38;;
19998;SDS011;10160;50.926;4.374;2023-05-07T05:14:25;11.93;;;6.70;;
19998;SDS011;10160;50.926;4.374;2023-05-07T05:16:51;14.80;;;7.00;;
19998;SDS011;10160;50.926;4.374;2023-05-07T05:19:17;14.15;;;6.72;;
19998;SDS011;10160;50.926;4.374;2023-05-07T05:21:43;16.40;;;7.28;;
19998;SDS011;10160;50.926;4.374;2023-05-07T05:24:08;14.35;;;6.93;;
19998;SDS011;10160;50.926;4.374;2023-05-07T05:26:34;14.52;;;7.88;;
19998;SDS011;10160;50.926;4.374;2023-05-07T05:29:00;14.20;;;8.30;;
19998;SDS011;10160;50.926;4.374;2023-05-07T05:31:25;16.08;;;7.97;;
19998;SDS011;10160;50.926;4.374;2023-05-07T05:33:51;11.27;;;7.47;;
19998;SDS011;10160;50.926;4.374;2023-05-07T05:36:17;16.75;;;9.15;;
19998;SDS011;10160;50.926;4.374;2023-05-07T05:38:43;14.68;;;8.73;;
19998;SDS011;10160;50.926;4.374;2023-05-07T05:41:09;18.67;;;9.10;;
19998;SDS011;10160;50.926;4.374;2023-05-07T05:43:35;14.25;;;10.00;;
19998;SDS011;10160;50.926;4.374;2023-05-07T05:46:01;14.38;;;10.00;;
19998;SDS011;10160;50.926;4.374;2023-05-07T05:48:28;18.67;;;10.93;;
19998;SDS011;10160;50.926;4.374;2023-05-07T05:50:54;19.60;;;10.57;;
19998;SDS011;10160;50.926;4.374;2023-05-07T05:53:20;22.90;;;11.13;;
19998;SDS011;10160;50.926;4.374;2023-05-07T05:55:45;19.38;;;11.68;;
19998;SDS011;10160;50.926;4.374;2023-05-07T05:58:11;21.85;;;11.82;;
19998;SDS011;10160;50.926;4.374;2023-05-07T06:00:37;18.23;;;11.38;;
19998;SDS011;10160;50.926;4.374;2023-05-07T06:03:03;23.05;;;11.32;;
19998;SDS011;10160;50.926;4.374;2023-05-07T06:05:28;17.25;;;11.20;;
19998;SDS011;10160;50.926;4.374;2023-05-07T06:07:54;19.77;;;11.68;;
19998;SDS011;10160;50.926;4.374;2023-05-07T06:10:19;17.27;;;11.20;;
19998;SDS011;10160;50.926;4.374;2023-05-07T06:12:45;14.90;;;9.35;;
19998;SDS011;10160;50.926;4.374;2023-05-07T06:15:11;16.17;;;9.48;;
19998;SDS011;10160;50.926;4.374;2023-05-07T06:17:36;18.80;;;9.43;;
19998;SDS011;10160;50.926;4.374;2023-05-07T06:20:02;19.75;;;9.25;;
19998;SDS011;10160;50.926;4.374;2023-05-07T06:22:28;12.60;;;8.80;;
19998;SDS011;10160;50.926;4.374;2023-05-07T06:24:54;14.57;;;6.72;;
19998;SDS011;10160;50.926;4.374;2023-05-07T06:27:19;16.35;;;7.00;;
19998;SDS011;10160;50.926;4.374;2023-05-07T06:29:45;16.00;;;6.80;;
19998;SDS011;10160;50.926;4.374;2023-05-07T06:32:13;11.60;;;5.22;;
19998;SDS011;10160;50.926;4.374;2023-05-07T06:34:39;14.75;;;5.55;;
19998;SDS011;10160;50.926;4.374;2023-05-07T06:37:05;12.38;;;5.57;;
19998;SDS011;10160;50.926;4.374;2023-05-07T06:39:31;15.05;;;5.72;;
19998;SDS011;10160;50.926;4.374;2023-05-07T06:41:57;14.95;;;5.47;;
19998;SDS011;10160;50.926;4.374;2023-05-07T06:44:23;17.27;;;5.53;;
19998;SDS011;10160;50.926;4.374;2023-05-07T06:46:49;21.02;;;5.57;;
19998;SDS011;10160;50.926;4.374;2023-05-07T06:49:14;16.75;;;6.05;;
19998;SDS011;10160;50.926;4.374;2023-05-07T06:51:40;16.42;;;5.78;;
19998;SDS011;10160;50.926;4.374;2023-05-07T06:54:06;16.48;;;6.72;;
19998;SDS011;10160;50.926;4.374;2023-05-07T06:56:32;14.55;;;6.68;;
19998;SDS011;10160;50.926;4.374;2023-05-07T06:58:59;18.65;;;7.00;;
19998;SDS011;10160;50.926;4.374;2023-05-07T07:01:25;18.98;;;5.95;;
19998;SDS011;10160;50.926;4.374;2023-05-07T07:03:51;15.60;;;5.65;;
19998;SDS011;10160;50.926;4.374;2023-05-07T07:06:17;16.25;;;6.40;;
19998;SDS011;10160;50.926;4.374;2023-05-07T07:08:43;16.58;;;6.50;;
19998;SDS011;10160;50.926;4.374;2023-05-07T07:11:09;18.70;;;6.00;;
19998;SDS011;10160;50.926;4.374;2023-05-07T07:13:35;14.55;;;6.03;;
19998;SDS011;10160;50.926;4.374;2023-05-07T07:16:01;15.70;;;5.70;;
19998;SDS011;10160;50.926;4.374;2023-05-07T07:18:27;15.82;;;5.70;;
19998;SDS011;10160;50.926;4.374;2023-05-07T07:20:53;16.58;;;5.57;;
19998;SDS011;10160;50.926;4.374;2023-05-07T07:23:19;13.02;;;5.25;;
19998;SDS011;10160;50.926;4.374;2023-05-07T07:25:45;13.57;;;5.47;;
19998;SDS011;10160;50.926;4.374;2023-05-07T07:28:11;16.10;;;5.40;;
19998;SDS011;10160;50.926;4.374;2023-05-07T07:30:37;9.52;;;4.70;;
19998;SDS011;10160;50.926;4.374;2023-05-07T07:33:03;16.30;;;5.55;;
19998;SDS011;10160;50.926;4.374;2023-05-07T07:35:30;13.50;;;5.13;;
19998;SDS011;10160;50.926;4.374;2023-05-07T07:37:56;18.23;;;5.30;;
19998;SDS011;10160;50.926;4.374;2023-05-07T07:40:22;17.48;;;5.50;;
19998;SDS011;10160;50.926;4.374;2023-05-07T07:42:48;12.07;;;5.10;;
19998;SDS011;10160;50.926;4.374;2023-05-07T07:45:13;12.38;;;5.15;;
19998;SDS011;10160;50.926;4.374;2023-05-07T07:47:40;13.05;;;5.43;;
19998;SDS011;10160;50.926;4.374;2023-05-07T07:50:06;11.00;;;5.13;;
19998;SDS011;10160;50.926;4.374;2023-05-07T07:52:32;19.33;;;6.03;;
19998;SDS011;10160;50.926;4.374;2023-05-07T07:54:59;15.68;;;5.55;;
19998;SDS011;10160;50.926;4.374;2023-05-07T07:57:25;13.98;;;5.97;;
19998;SDS011;10160;50.926;4.374;2023-05-07T07:59:51;13.05;;;5.28;;
19998;SDS011;10160;50.926;4.374;2023-05-07T08:02:16;10.35;;;4.95;;
19998;SDS011;10160;50.926;4.374;2023-05-07T08:04:43;12.02;;;4.80;;
19998;SDS011;10160;50.926;4.374;2023-05-07T08:07:12;17.35;;;5.28;;
19998;SDS011;10160;50.926;4.374;2023-05-07T08:09:38;11.88;;;4.70;;
19998;SDS011;10160;50.926;4.374;2023-05-07T08:12:05;12.18;;;4.57;;
19998;SDS011;10160;50.926;4.374;2023-05-07T08:14:31;12.38;;;4.40;;
19998;SDS011;10160;50.926;4.374;2023-05-07T08:16:57;10.60;;;4.50;;
19998;SDS011;10160;50.926;4.374;2023-05-07T08:19:22;10.90;;;4.43;;
19998;SDS011;10160;50.926;4.374;2023-05-07T08:21:48;12.57;;;4.53;;
19998;SDS011;10160;50.926;4.374;2023-05-07T08:24:14;10.15;;;3.90;;
19998;SDS011;10160;50.926;4.374;2023-05-07T08:26:40;13.45;;;4.43;;
19998;SDS011;10160;50.926;4.374;2023-05-07T08:29:06;10.52;;;3.88;;
19998;SDS011;10160;50.926;4.374;2023-05-07T08:31:32;8.98;;;4.00;;
19998;SDS011;10160;50.926;4.374;2023-05-07T08:33:58;10.82;;;4.35;;
19998;SDS011;10160;50.926;4.374;2023-05-07T08:36:24;11.63;;;4.10;;
19998;SDS011;10160;50.926;4.374;2023-05-07T08:38:50;13.77;;;4.03;;
19998;SDS011;10160;50.926;4.374;2023-05-07T08:41:17;9.75;;;4.07;;
19998;SDS011;10160;50.926;4.374;2023-05-07T08:43:43;11.07;;;4.15;;
19998;SDS011;10160;50.926;4.374;2023-05-07T08:46:12;12.32;;;4.28;;
19998;SDS011;10160;50.926;4.374;2023-05-07T08:48:43;8.45;;;3.70;;
19998;SDS011;10160;50.926;4.374;2023-05-07T08:51:13;12.98;;;3.90;;
19998;SDS011;10160;50.926;4.374;2023-05-07T08:53:41;6.88;;;3.53;;
19998;SDS011;10160;50.926;4.374;2023-05-07T08:56:10;10.13;;;4.30;;
19998;SDS011;10160;50.926;4.374;2023-05-07T08:58:37;9.05;;;3.78;;
19998;SDS011;10160;50.926;4.374;2023-05-07T09:01:03;12.10;;;4.35;;
19998;SDS011;10160;50.926;4.374;2023-05-07T09:03:33;9.38;;;3.63;;
19998;SDS011;10160;50.926;4.374;2023-05-07T09:05:58;11.15;;;3.90;;
19998;SDS011;10160;50.926;4.374;2023-05-07T09:08:25;8.20;;;3.28;;
19998;SDS011;10160;50.926;4.374;2023-05-07T09:10:52;10.10;;;3.10;;
19998;SDS011;10160;50.926;4.374;2023-05-07T09:13:18;7.07;;;2.83;;
19998;SDS011;10160;50.926;4.374;2023-05-07T09:15:44;8.10;;;2.88;;
19998;SDS011;10160;50.926;4.374;2023-05-07T09:18:10;6.22;;;2.78;;
19998;SDS011;10160;50.926;4.374;2023-05-07T09:20:37;8.20;;;3.13;;
19998;SDS011;10160;50.926;4.374;2023-05-07T09:23:03;10.85;;;2.85;;
19998;SDS011;10160;50.926;4.374;2023-05-07T09:25:32;8.68;;;3.00;;
19998;SDS011;10160;50.926;4.374;2023-05-07T09:27:59;12.60;;;3.65;;
19998;SDS011;10160;50.926;4.374;2023-05-07T09:30:33;9.52;;;2.85;;
19998;SDS011;10160;50.926;4.374;2023-05-07T09:32:59;9.23;;;2.97;;
19998;SDS011;10160;50.926;4.374;2023-05-07T09:35:25;9.75;;;2.78;;
19998;SDS011;10160;50.926;4.374;2023-05-07T09:37:55;8.18;;;2.97;;
19998;SDS011;10160;50.926;4.374;2023-05-07T09:40:22;8.98;;;2.95;;
19998;SDS011;10160;50.926;4.374;2023-05-07T09:42:50;8.15;;;3.33;;
19998;SDS011;10160;50.926;4.374;2023-05-07T09:45:20;9.65;;;2.88;;
19998;SDS011;10160;50.926;4.374;2023-05-07T09:47:57;9.32;;;3.17;;
19998;SDS011;10160;50.926;4.374;2023-05-07T09:50:30;8.70;;;3.40;;
19998;SDS011;10160;50.926;4.374;2023-05-07T09:53:01;11.38;;;3.28;;
19998;SDS011;10160;50.926;4.374;2023-05-07T09:55:28;9.95;;;3.45;;
19998;SDS011;10160;50.926;4.374;2023-05-07T09:57:55;9.57;;;3.65;;
19998;SDS011;10160;50.926;4.374;2023-05-07T10:00:22;9.02;;;3.80;;
19998;SDS011;10160;50.926;4.374;2023-05-07T10:02:51;9.77;;;3.17;;
19998;SDS011;10160;50.926;4.374;2023-05-07T10:05:18;9.77;;;3.85;;
19998;SDS011;10160;50.926;4.374;2023-05-07T10:07:45;10.07;;;3.60;;
19998;SDS011;10160;50.926;4.374;2023-05-07T10:10:12;7.57;;;3.05;;
19998;SDS011;10160;50.926;4.374;2023-05-07T10:12:39;12.35;;;2.88;;
19998;SDS011;10160;50.926;4.374;2023-05-07T10:15:06;9.85;;;3.33;;
19998;SDS011;10160;50.926;4.374;2023-05-07T10:17:36;7.40;;;3.28;;
19998;SDS011;10160;50.926;4.374;2023-05-07T10:20:04;9.93;;;3.67;;
19998;SDS011;10160;50.926;4.374;2023-05-07T10:22:38;11.25;;;3.85;;
19998;SDS011;10160;50.926;4.374;2023-05-07T10:25:14;11.20;;;4.43;;
19998;SDS011;10160;50.926;4.374;2023-05-07T10:27:46;9.75;;;3.80;;
19998;SDS011;10160;50.926;4.374;2023-05-07T10:30:19;9.98;;;3.97;;
19998;SDS011;10160;50.926;4.374;2023-05-07T10:33:00;8.35;;;3.30;;
19998;SDS011;10160;50.926;4.374;2023-05-07T10:35:31;10.50;;;3.30;;
19998;SDS011;10160;50.926;4.374;2023-05-07T10:38:02;11.85;;;2.92;;
19998;SDS011;10160;50.926;4.374;2023-05-07T10:40:29;12.98;;;3.92;;
19998;SDS011;10160;50.926;4.374;2023-05-07T10:42:57;11.60;;;4.10;;
19998;SDS011;10160;50.926;4.374;2023-05-07T10:45:27;13.13;;;3.95;;
19998;SDS011;10160;50.926;4.374;2023-05-07T10:50:35;11.00;;;4.45;;
19998;SDS011;10160;50.926;4.374;2023-05-07T10:53:20;9.80;;;4.40;;
19998;SDS011;10160;50.926;4.374;2023-05-07T10:58:46;10.85;;;4.88;;
19998;SDS011;10160;50.926;4.374;2023-05-07T11:01:12;11.35;;;5.18;;
19998;SDS011;10160;50.926;4.374;2023-05-07T11:06:38;11.68;;;5.20;;
19998;SDS011;10160;50.926;4.374;2023-05-07T11:09:05;11.57;;;5.75;;
19998;SDS011;10160;50.926;4.374;2023-05-07T11:11:49;16.60;;;6.38;;
19998;SDS011;10160;50.926;4.374;2023-05-07T11:17:11;13.40;;;6.22;;
19998;SDS011;10160;50.926;4.374;2023-05-07T11:19:55;14.35;;;5.60;;
19998;SDS011;10160;50.926;4.374;2023-05-07T11:22:35;14.30;;;5.45;;
19998;SDS011;10160;50.926;4.374;2023-05-07T11:25:05;13.98;;;5.20;;
19998;SDS011;10160;50.926;4.374;2023-05-07T11:27:31;12.85;;;5.30;;
19998;SDS011;10160;50.926;4.374;2023-05-07T11:29:58;13.45;;;6.20;;
19998;SDS011;10160;50.926;4.374;2023-05-07T11:32:24;13.18;;;6.15;;
19998;SDS011;10160;50.926;4.374;2023-05-07T11:34:54;13.32;;;5.70;;
19998;SDS011;10160;50.926;4.374;2023-05-07T11:37:21;8.88;;;3.97;;
19998;SDS011;10160;50.926;4.374;2023-05-07T11:39:48;8.23;;;3.58;;
19998;SDS011;10160;50.926;4.374;2023-05-07T11:42:33;9.23;;;4.20;;
19998;SDS011;10160;50.926;4.374;2023-05-07T11:45:00;9.48;;;4.32;;
19998;SDS011;10160;50.926;4.374;2023-05-07T11:47:26;10.65;;;4.13;;
19998;SDS011;10160;50.926;4.374;2023-05-07T11:49:55;9.75;;;4.47;;
19998;SDS011;10160;50.926;4.374;2023-05-07T11:52:22;8.77;;;4.22;;
19998;SDS011;10160;50.926;4.374;2023-05-07T11:54:52;7.80;;;3.88;;
19998;SDS011;10160;50.926;4.374;2023-05-07T11:57:20;10.23;;;3.75;;
19998;SDS011;10160;50.926;4.374;2023-05-07T11:59:47;10.73;;;3.17;;
19998;SDS011;10160;50.926;4.374;2023-05-07T12:02:13;6.45;;;2.90;;
19998;SDS011;10160;50.926;4.374;2023-05-07T12:04:40;7.90;;;2.90;;
19998;SDS011;10160;50.926;4.374;2023-05-07T12:07:10;6.55;;;2.80;;
19998;SDS011;10160;50.926;4.374;2023-05-07T12:09:40;8.05;;;3.03;;
19998;SDS011;10160;50.926;4.374;2023-05-07T12:12:07;8.93;;;2.78;;
19998;SDS011;10160;50.926;4.374;2023-05-07T12:14:33;8.68;;;3.30;;
19998;SDS011;10160;50.926;4.374;2023-05-07T12:17:09;8.50;;;3.00;;
19998;SDS011;10160;50.926;4.374;2023-05-07T12:19:37;9.00;;;3.35;;
19998;SDS011;10160;50.926;4.374;2023-05-07T12:22:04;10.43;;;3.60;;
19998;SDS011;10160;50.926;4.374;2023-05-07T12:24:46;6.57;;;3.30;;
19998;SDS011;10160;50.926;4.374;2023-05-07T12:27:13;8.07;;;3.08;;
19998;SDS011;10160;50.926;4.374;2023-05-07T12:29:43;6.55;;;2.70;;
19998;SDS011;10160;50.926;4.374;2023-05-07T12:32:17;5.75;;;2.08;;
19998;SDS011;10160;50.926;4.374;2023-05-07T12:34:44;5.30;;;1.75;;
19998;SDS011;10160;50.926;4.374;2023-05-07T12:37:10;6.00;;;1.58;;
19998;SDS011;10160;50.926;4.374;2023-05-07T12:39:37;3.88;;;1.65;;
19998;SDS011;10160;50.926;4.374;2023-05-07T12:42:03;5.53;;;1.60;;
19998;SDS011;10160;50.926;4.374;2023-05-07T12:44:30;4.32;;;1.77;;
19998;SDS011;10160;50.926;4.374;2023-05-07T12:46:57;4.00;;;1.95;;
19998;SDS011;10160;50.926;4.374;2023-05-07T12:49:26;5.07;;;1.88;;
19998;SDS011;10160;50.926;4.374;2023-05-07T12:51:51;4.72;;;2.00;;
19998;SDS011;10160;50.926;4.374;2023-05-07T12:54:31;5.53;;;2.30;;
19998;SDS011;10160;50.926;4.374;2023-05-07T12:59:38;9.38;;;3.05;;
19998;SDS011;10160;50.926;4.374;2023-05-07T13:02:05;9.57;;;3.53;;
19998;SDS011;10160;50.926;4.374;2023-05-07T13:04:32;9.40;;;3.97;;
19998;SDS011;10160;50.926;4.374;2023-05-07T13:06:58;8.70;;;3.55;;
19998;SDS011;10160;50.926;4.374;2023-05-07T13:09:24;9.63;;;4.00;;
19998;SDS011;10160;50.926;4.374;2023-05-07T13:11:50;9.85;;;3.75;;
19998;SDS011;10160;50.926;4.374;2023-05-07T13:14:16;10.95;;;3.58;;
19998;SDS011;10160;50.926;4.374;2023-05-07T13:16:42;6.50;;;3.03;;
19998;SDS011;10160;50.926;4.374;2023-05-07T13:19:07;7.88;;;3.58;;
19998;SDS011;10160;50.926;4.374;2023-05-07T13:21:33;11.13;;;3.22;;
19998;SDS011;10160;50.926;4.374;2023-05-07T13:23:59;8.80;;;3.83;;
19998;SDS011;10160;50.926;4.374;2023-05-07T13:26:25;9.55;;;3.47;;
19998;SDS011;10160;50.926;4.374;2023-05-07T13:28:51;7.03;;;3.83;;
19998;SDS011;10160;50.926;4.374;2023-05-07T13:31:20;10.38;;;3.88;;
19998;SDS011;10160;50.926;4.374;2023-05-07T13:33:46;7.47;;;3.75;;
19998;SDS011;10160;50.926;4.374;2023-05-07T13:36:11;7.07;;;3.90;;
19998;SDS011;10160;50.926;4.374;2023-05-07T13:38:37;6.80;;;3.75;;
19998;SDS011;10160;50.926;4.374;2023-05-07T13:41:04;8.73;;;4.32;;
19998;SDS011;10160;50.926;4.374;2023-05-07T13:43:29;6.93;;;3.88;;
19998;SDS011;10160;50.926;4.374;2023-05-07T13:45:56;6.78;;;4.30;;
19998;SDS011;10160;50.926;4.374;2023-05-07T13:48:22;8.23;;;4.40;;
19998;SDS011;10160;50.926;4.374;2023-05-07T13:50:48;8.15;;;4.47;;
19998;SDS011;10160;50.926;4.374;2023-05-07T13:53:13;8.02;;;4.63;;
19998;SDS011;10160;50.926;4.374;2023-05-07T13:55:42;8.10;;;4.85;;
19998;SDS011;10160;50.926;4.374;2023-05-07T13:58:08;7.30;;;4.70;;
19998;SDS011;10160;50.926;4.374;2023-05-07T14:00:34;8.25;;;4.97;;
19998;SDS011;10160;50.926;4.374;2023-05-07T14:03:00;13.35;;;5.03;;
19998;SDS011;10160;50.926;4.374;2023-05-07T14:05:26;7.25;;;4.82;;
19998;SDS011;10160;50.926;4.374;2023-05-07T14:07:53;9.85;;;5.05;;
19998;SDS011;10160;50.926;4.374;2023-05-07T14:10:22;9.65;;;5.63;;
19998;SDS011;10160;50.926;4.374;2023-05-07T14:12:47;8.82;;;5.57;;
19998;SDS011;10160;50.926;4.374;2023-05-07T14:15:13;9.52;;;5.75;;
19998;SDS011;10160;50.926;4.374;2023-05-07T14:17:39;12.43;;;6.32;;
19998;SDS011;10160;50.926;4.374;2023-05-07T14:20:05;10.65;;;6.97;;
19998;SDS011;10160;50.926;4.374;2023-05-07T14:22:32;10.10;;;6.93;;
19998;SDS011;10160;50.926;4.374;2023-05-07T14:24:57;11.40;;;7.03;;
19998;SDS011;10160;50.926;4.374;2023-05-07T14:27:23;9.25;;;6.45;;
19998;SDS011;10160;50.926;4.374;2023-05-07T14:29:49;13.68;;;7.28;;
19998;SDS011;10160;50.926;4.374;2023-05-07T14:32:18;13.18;;;6.38;;
19998;SDS011;10160;50.926;4.374;2023-05-07T14:34:45;12.43;;;7.03;;
19998;SDS011;10160;50.926;4.374;2023-05-07T14:37:11;9.65;;;6.93;;
19998;SDS011;10160;50.926;4.374;2023-05-07T14:39:36;11.45;;;6.55;;
19998;SDS011;10160;50.926;4.374;2023-05-07T14:42:02;10.55;;;7.22;;
19998;SDS011;10160;50.926;4.374;2023-05-07T14:44:28;8.40;;;5.78;;
19998;SDS011;10160;50.926;4.374;2023-05-07T14:46:54;9.05;;;5.93;;
19998;SDS011;10160;50.926;4.374;2023-05-07T14:49:20;8.98;;;6.25;;
19998;SDS011;10160;50.926;4.374;2023-05-07T14:51:46;9.00;;;6.47;;